»·PEaware :: ACA1899 KLAS-CYVR

ACA1899 :: KLAS-CYVR

FLIGHT INFORMATION

Flight Status: Arrived
Operator:
Air Canada
More flights by this operator :: More flights under this callsign
Pilot: Marco L. (12777)
Aircraft: AIRBUS A321
(A321)
More flights by this aircraft type
Origin: KLAS McCarran Intl
United States
Destination: CYVR Vancouver Intl
Canada
More flights between these airports :: More routes between these airports
Route: SHEAD9 OAL J92 FMG J5 LKV J5 SEA PAE GRIZZ5
File this flight plan on PilotEdge
Remarks:
Altitude:
(Current/Filed)
34,000ft
Speed:
(Current/Filed)
440kts
Departed: 02-Oct-16 12:21 PM
Arrived: 02-Oct-16 02:34 PM
Distance/Time
Traveled:
862nm/2:12
Distance/Time
To Go:
Arrived

Flight Plot

Page will automatically refresh every two minutes.

Flight plan parsing failed; only flown route is shown


Map Options




Map Legend


Flown Route
Filed Route
Departure Airport
Arrival Airport
Navaid (VOR, NDB)
Fix

Horizontal Profiles

Position Reports

Time Latitude Longitude Heading Altitude Ground
Speed
02-Oct-16 11:23 36.083591 -115.136281 159 2195ft 0kts
02-Oct-16 11:24 36.083591 -115.136281 159 2195ft 0kts
02-Oct-16 11:25 36.083591 -115.136281 159 2195ft 0kts
02-Oct-16 11:26 36.083591 -115.136281 159 2195ft 0kts
02-Oct-16 11:27 36.083591 -115.136281 159 2195ft 0kts
02-Oct-16 11:28 36.083591 -115.136281 159 2195ft 0kts
02-Oct-16 11:29 36.083591 -115.136281 159 2195ft 0kts
02-Oct-16 11:30 36.083591 -115.136281 159 2195ft 0kts
02-Oct-16 11:31 36.083591 -115.136281 159 2195ft 0kts
02-Oct-16 11:32 36.083591 -115.136281 159 2195ft 0kts
02-Oct-16 11:33 36.083591 -115.136281 159 2195ft 0kts
02-Oct-16 11:34 36.083591 -115.136281 159 2195ft 0kts
02-Oct-16 11:35 36.083591 -115.136281 159 2195ft 0kts
02-Oct-16 11:36 36.083591 -115.136281 159 2195ft 0kts
02-Oct-16 11:37 36.083591 -115.136281 159 2195ft 0kts
02-Oct-16 11:38 36.083591 -115.136281 159 2195ft 0kts
02-Oct-16 11:39 36.083591 -115.136281 159 2195ft 0kts
02-Oct-16 11:40 36.083591 -115.136281 159 2195ft 0kts
02-Oct-16 11:41 36.083591 -115.136281 159 2195ft 0kts
02-Oct-16 11:42 36.083591 -115.136281 159 2195ft 0kts
02-Oct-16 11:43 36.083591 -115.136281 159 2195ft 0kts
02-Oct-16 11:44 36.083591 -115.136281 159 2195ft 0kts
02-Oct-16 11:45 36.083591 -115.136281 159 2195ft 0kts
02-Oct-16 11:46 36.083591 -115.136281 159 2195ft 0kts
02-Oct-16 11:47 36.083591 -115.136281 159 2195ft 0kts
02-Oct-16 11:48 36.083591 -115.136281 159 2195ft 0kts
02-Oct-16 11:49 36.083591 -115.136281 159 2195ft 0kts
02-Oct-16 11:50 36.083591 -115.136281 159 2195ft 0kts
02-Oct-16 11:51 36.083591 -115.136281 159 2195ft 0kts
02-Oct-16 11:52 36.083591 -115.136281 159 2195ft 0kts
02-Oct-16 11:53 36.083591 -115.136281 159 2195ft 0kts
02-Oct-16 11:54 36.083591 -115.136281 159 2195ft 0kts
02-Oct-16 11:55 36.083591 -115.136281 159 2195ft 0kts
02-Oct-16 11:56 36.083591 -115.136281 159 2195ft 0kts
02-Oct-16 11:57 36.083591 -115.136281 159 2195ft 0kts
02-Oct-16 11:58 36.083798 -115.136380 152 2195ft 2kts
02-Oct-16 11:59 36.084160 -115.136857 90 2195ft 0kts
02-Oct-16 12:00 36.084160 -115.136856 90 2195ft 0kts
02-Oct-16 12:01 36.084160 -115.136854 90 2195ft 0kts
02-Oct-16 12:02 36.084160 -115.136852 90 2195ft 0kts
02-Oct-16 12:03 36.084160 -115.136850 90 2195ft 0kts
02-Oct-16 12:04 36.084160 -115.136848 90 2195ft 0kts
02-Oct-16 12:05 36.084160 -115.136846 90 2195ft 0kts
02-Oct-16 12:06 36.084160 -115.136844 90 2195ft 0kts
02-Oct-16 12:07 36.084160 -115.136842 90 2195ft 0kts
02-Oct-16 12:08 36.084192 -115.135741 87 2195ft 10kts
02-Oct-16 12:09 36.081069 -115.132938 183 2195ft 16kts
02-Oct-16 12:10 36.078902 -115.132932 177 2195ft 2kts
02-Oct-16 12:11 36.078295 -115.129807 90 2195ft 17kts
02-Oct-16 12:12 36.078261 -115.124187 91 2195ft 20kts
02-Oct-16 12:13 36.077526 -115.121492 141 2195ft 0kts
02-Oct-16 12:14 36.077525 -115.121491 141 2195ft 0kts
02-Oct-16 12:15 36.077523 -115.121490 141 2195ft 0kts
02-Oct-16 12:16 36.076402 -115.121755 267 2195ft 9kts
02-Oct-16 12:17 36.076382 -115.136169 268 2195ft 142kts
02-Oct-16 12:18 36.076574 -115.200388 265 4191ft 211kts
02-Oct-16 12:19 36.066177 -115.282319 227 6089ft 255kts
02-Oct-16 12:20 35.999083 -115.300892 182 6508ft 255kts
02-Oct-16 12:21 35.937436 -115.343262 221 8825ft 267kts
02-Oct-16 12:22 35.888919 -115.412015 251 9017ft 270kts
02-Oct-16 12:23 35.887900 -115.512781 266 10823ft 337kts
02-Oct-16 12:24 35.890319 -115.637806 267 11013ft 371kts
02-Oct-16 12:25 35.892568 -115.766451 266 13782ft 379kts
02-Oct-16 12:26 35.894639 -115.890826 266 13999ft 379kts
02-Oct-16 12:27 35.935072 -116.016425 310 16316ft 408kts
02-Oct-16 12:28 36.020156 -116.114117 311 18263ft 426kts
02-Oct-16 12:29 36.108207 -116.215238 310 20255ft 438kts
02-Oct-16 12:30 36.198590 -116.319462 310 20917ft 447kts
02-Oct-16 12:31 36.289748 -116.424873 310 20919ft 448kts
02-Oct-16 12:32 36.380556 -116.530257 310 20918ft 447kts
02-Oct-16 12:33 36.471647 -116.636571 309 20918ft 446kts
02-Oct-16 12:34 36.562050 -116.743126 310 20926ft 446kts
02-Oct-16 12:35 36.668704 -116.829367 322 21040ft 459kts
02-Oct-16 12:36 36.778386 -116.911504 321 22362ft 454kts
02-Oct-16 12:37 36.887433 -116.993908 320 23666ft 459kts
02-Oct-16 12:38 36.997140 -117.077325 320 24966ft 464kts
02-Oct-16 12:39 37.108253 -117.162238 319 26060ft 473kts
02-Oct-16 12:40 37.223184 -117.250660 319 26653ft 490kts
02-Oct-16 12:41 37.341491 -117.337960 323 27891ft 495kts
02-Oct-16 12:42 37.464479 -117.417455 322 28952ft 496kts
02-Oct-16 12:43 37.587295 -117.496938 321 30089ft 494kts
02-Oct-16 12:44 37.709680 -117.576525 320 31124ft 494kts
02-Oct-16 12:45 37.831458 -117.656023 320 32162ft 493kts
02-Oct-16 12:46 37.953292 -117.735868 319 33162ft 491kts
02-Oct-16 12:47 38.061967 -117.831776 303 33879ft 462kts
02-Oct-16 12:48 38.153235 -117.944608 303 33928ft 456kts
02-Oct-16 12:49 38.244999 -118.056713 302 33926ft 453kts
02-Oct-16 12:50 38.336454 -118.168308 302 33939ft 454kts
02-Oct-16 12:51 38.428090 -118.280014 302 33985ft 455kts
02-Oct-16 12:52 38.519490 -118.391517 302 33968ft 455kts
02-Oct-16 12:53 38.610689 -118.504036 303 33960ft 455kts
02-Oct-16 12:54 38.702571 -118.617302 303 33952ft 459kts
02-Oct-16 12:55 38.794814 -118.730964 303 33959ft 459kts
02-Oct-16 12:56 38.887245 -118.845121 303 33975ft 461kts
02-Oct-16 12:57 38.979825 -118.959728 304 33986ft 461kts
02-Oct-16 12:58 39.071538 -119.074651 304 33984ft 461kts
02-Oct-16 12:59 39.163606 -119.190089 304 33990ft 461kts
02-Oct-16 13:00 39.255916 -119.306086 304 33978ft 462kts
02-Oct-16 13:01 39.348071 -119.422641 305 33984ft 463kts
02-Oct-16 13:02 39.440297 -119.539383 305 33979ft 463kts
02-Oct-16 13:03 39.538694 -119.649179 323 33966ft 486kts
02-Oct-16 13:04 39.673277 -119.695833 340 33964ft 504kts
02-Oct-16 13:05 39.810397 -119.733313 340 33971ft 503kts
02-Oct-16 13:06 39.947745 -119.771165 340 33974ft 503kts
02-Oct-16 13:07 40.085873 -119.809564 340 33989ft 513kts
02-Oct-16 13:08 40.202488 -119.842046 341 34004ft 512kts
02-Oct-16 13:09 40.365465 -119.887653 341 34005ft 512kts
02-Oct-16 13:10 40.481862 -119.920338 341 34006ft 512kts
02-Oct-16 13:11 40.621225 -119.959660 341 34008ft 511kts
02-Oct-16 13:12 40.760011 -119.998946 341 34012ft 510kts
02-Oct-16 13:13 40.897090 -120.038075 341 34015ft 502kts
02-Oct-16 13:14 41.034024 -120.077641 341 34027ft 502kts
02-Oct-16 13:15 41.170855 -120.117147 342 34029ft 502kts
02-Oct-16 13:16 41.307851 -120.156858 342 34036ft 503kts
02-Oct-16 13:17 41.444297 -120.196475 342 34035ft 502kts
02-Oct-16 13:18 41.581382 -120.236379 342 34035ft 504kts
02-Oct-16 13:19 41.719083 -120.276587 342 34033ft 505kts
02-Oct-16 13:20 41.856719 -120.316928 342 34030ft 505kts
02-Oct-16 13:21 41.994302 -120.357429 342 34029ft 505kts
02-Oct-16 13:22 42.132061 -120.398197 342 34028ft 505kts
02-Oct-16 13:23 42.269190 -120.438937 342 34028ft 505kts
02-Oct-16 13:24 42.406495 -120.479912 342 34028ft 503kts
02-Oct-16 13:25 42.543370 -120.522873 340 34022ft 502kts
02-Oct-16 13:26 42.678930 -120.569192 341 34016ft 501kts
02-Oct-16 13:27 42.814013 -120.614710 341 33999ft 500kts
02-Oct-16 13:28 42.949251 -120.660413 341 33990ft 499kts
02-Oct-16 13:29 43.084220 -120.706202 341 33980ft 498kts
02-Oct-16 13:30 43.218700 -120.752059 342 33971ft 497kts
02-Oct-16 13:31 43.353101 -120.798083 342 33962ft 496kts
02-Oct-16 13:32 43.486711 -120.844057 342 33953ft 495kts
02-Oct-16 13:33 43.620493 -120.890306 342 33945ft 494kts
02-Oct-16 13:34 43.753988 -120.936679 342 33935ft 493kts
02-Oct-16 13:35 43.887193 -120.983160 342 33931ft 492kts
02-Oct-16 13:36 44.019596 -121.029572 342 33929ft 491kts
02-Oct-16 13:37 44.153793 -121.076825 342 33928ft 497kts
02-Oct-16 13:38 44.287976 -121.124860 342 33928ft 496kts
02-Oct-16 13:39 44.421908 -121.172608 342 33928ft 495kts
02-Oct-16 13:40 44.555471 -121.220316 342 33932ft 493kts
02-Oct-16 13:41 44.688275 -121.267964 342 33939ft 492kts
02-Oct-16 13:42 44.821011 -121.315800 342 33944ft 490kts
02-Oct-16 13:43 44.953305 -121.363724 343 33949ft 489kts
02-Oct-16 13:44 45.085086 -121.411683 343 33949ft 487kts
02-Oct-16 13:45 45.215862 -121.459521 343 33947ft 485kts
02-Oct-16 13:46 45.346648 -121.507578 343 33947ft 483kts
02-Oct-16 13:47 45.476794 -121.555636 343 33944ft 482kts
02-Oct-16 13:48 45.606587 -121.603798 343 33945ft 480kts
02-Oct-16 13:49 45.735937 -121.652021 343 33947ft 479kts
02-Oct-16 13:50 45.864579 -121.700215 343 33955ft 478kts
02-Oct-16 13:51 45.993412 -121.748709 343 33961ft 477kts
02-Oct-16 13:52 46.123714 -121.797930 343 33971ft 485kts
02-Oct-16 13:53 46.254289 -121.847642 343 33970ft 483kts
02-Oct-16 13:54 46.384495 -121.897388 343 33974ft 482kts
02-Oct-16 13:55 46.514214 -121.947201 343 33980ft 481kts
02-Oct-16 13:56 46.643002 -121.996958 343 33983ft 479kts
02-Oct-16 13:57 46.770438 -122.046924 343 33983ft 472kts
02-Oct-16 13:58 46.897323 -122.096467 343 33985ft 470kts
02-Oct-16 13:59 47.023748 -122.146165 343 33988ft 469kts
02-Oct-16 14:00 47.149786 -122.195883 343 33988ft 468kts
02-Oct-16 14:01 47.275052 -122.245431 343 33984ft 466kts
02-Oct-16 14:02 47.400728 -122.294457 346 33983ft 466kts
02-Oct-16 14:03 47.530499 -122.303105 1 33981ft 468kts
02-Oct-16 14:04 47.661126 -122.294948 1 32227ft 468kts
02-Oct-16 14:05 47.790806 -122.286649 1 29592ft 465kts
02-Oct-16 14:06 47.919893 -122.278488 359 26866ft 460kts
02-Oct-16 14:07 48.044545 -122.310493 347 24199ft 448kts
02-Oct-16 14:08 48.165019 -122.346976 348 21676ft 433kts
02-Oct-16 14:09 48.277860 -122.380887 348 19165ft 391kts
02-Oct-16 14:10 48.363203 -122.406299 348 17686ft 370kts
02-Oct-16 14:11 48.482814 -122.441512 348 14722ft 369kts
02-Oct-16 14:12 48.566046 -122.466113 348 12924ft 360kts
02-Oct-16 14:13 48.659877 -122.494009 349 11977ft 310kts
02-Oct-16 14:14 48.730843 -122.547481 308 11800ft 301kts
02-Oct-16 14:15 48.782439 -122.647106 306 11172ft 298kts
02-Oct-16 14:16 48.833303 -122.746452 306 10548ft 295kts
02-Oct-16 14:17 48.883751 -122.845329 306 9995ft 294kts
02-Oct-16 14:18 48.933156 -122.942466 307 9962ft 272kts
02-Oct-16 14:19 48.991349 -123.000389 0 8466ft 260kts
02-Oct-16 14:20 49.060193 -122.985568 40 6492ft 245kts
02-Oct-16 14:21 49.071825 -122.889114 90 4519ft 232kts
02-Oct-16 14:22 49.076950 -122.792535 53 3023ft 219kts
02-Oct-16 14:23 49.128699 -122.782877 337 2958ft 192kts
02-Oct-16 14:24 49.160673 -122.845588 291 2973ft 188kts
02-Oct-16 14:25 49.173213 -122.922194 280 2970ft 179kts
02-Oct-16 14:26 49.181255 -122.990654 280 2201ft 172kts
02-Oct-16 14:27 49.188848 -123.057233 279 1369ft 150kts
02-Oct-16 14:28 49.195728 -123.118165 279 595ft 141kts
02-Oct-16 14:29 49.202131 -123.173348 278 29ft 97kts
02-Oct-16 14:30 49.202441 -123.187172 250 28ft 16kts
02-Oct-16 14:31 49.201586 -123.189102 97 28ft 5kts
02-Oct-16 14:32 49.201545 -123.188627 97 28ft 0kts
02-Oct-16 14:33 49.201343 -123.186012 99 28ft 16kts
02-Oct-16 14:34 49.200206 -123.176238 98 28ft 24kts
02-Oct-16 14:35 49.198378 -123.171867 174 28ft 12kts
02-Oct-16 14:36 49.197693 -123.172929 268 28ft 2kts
02-Oct-16 14:37 49.197692 -123.173009 268 28ft 0kts

Navigation Log

Ident Type
Flight plan parsing failed, navigation log unavailable